Fidelity — ODUH — position and weather

sailwx.info

Track history (hours):
 
Tides and Currents Weather Stations Pressure Air Temp Water Temp Dewpoint Dewpoint Depression Visibility Wind Speed Wind Dir Waves Ship Positions

Fidelity

Last reported at 2018-Jun-12 01:18 UTC. Time now 2018-Jun-25 07:59 UTC.
Position N 33°16' E 014°01'.
Warning: this ship's position is 13 days out of date.

Length 116 m; draft 6.2 m.

Type: Cargo ship. MMSI: 450511000.

Date/timePositionNaut miles runAvg speedWind from/ knotsBaromVisibWave heightAir tempDewpointWater temp
2018-Jun-12 01:18N 33°16' E 014°01'310.0
2018-Jun-12 00:58N 33°19' E 013°60'5 9.9
2018-Jun-12 00:30N 33°24' E 013°58'5110.5
2018-Jun-11 19:40N 34°10' E 013°33'210.9
2018-Jun-11 19:30N 34°12' E 013°32'611.2
2018-Jun-11 18:59N 34°17' E 013°29'611.4
2018-Jun-11 18:29N 34°22' E 013°26'611.4
2018-Jun-11 18:00N 34°27' E 013°24'611.4
2018-Jun-11 17:26N 34°33' E 013°21'6011.7
2018-Jun-11 12:19N 35°28' E 012°51'411.6
2018-Jun-11 12:00N 35°31' E 012°49'611.8
2018-Jun-11 11:30N 35°36' E 012°45'611.9
2018-Jun-11 11:00N 35°41' E 012°41'612.0
2018-Jun-11 10:29N 35°46' E 012°36'611.9
2018-Jun-11 10:00N 35°51' E 012°33'612.0
2018-Jun-11 09:30N 35°56' E 012°28'612.0
2018-Jun-11 09:00N 36°01' E 012°24'612.0
2018-Jun-11 08:30N 36°06' E 012°20'611.9
2018-Jun-11 07:58N 36°11' E 012°16'611.9
2018-Jun-11 07:29N 36°16' E 012°12'611.9
2018-Jun-11 07:00N 36°21' E 012°08'611.9
2018-Jun-11 06:30N 36°26' E 012°04'712.0
2018-Jun-11 05:55N 36°32' E 011°59'38011.3
2018-Jun-09 20:26N 37°34' E 004°10'1511.6
2018-Jun-09 19:08N 37°34' E 003°51'511.5
2018-Jun-09 18:43N 37°33' E 003°44'211.4
2018-Jun-09 18:30N 37°33' E 003°41'611.4
2018-Jun-09 18:00N 37°33' E 003°34'611.4
2018-Jun-09 17:27N 37°33' E 003°26'511.7
2018-Jun-09 17:00N 37°33' E 003°20'611.9
2018-Jun-09 16:30N 37°33' E 003°12'612.1
2018-Jun-09 16:00N 37°33' E 003°05'1312.4
2018-Jun-09 14:59N 37°33' E 002°49'612.3
2018-Jun-09 14:30N 37°33' E 002°41'612.3
2018-Jun-09 14:00N 37°33' E 002°33'612.1
2018-Jun-09 13:30N 37°33' E 002°26'612.1
2018-Jun-09 13:00N 37°32' E 002°18'612.3
2018-Jun-09 12:30N 37°32' E 002°10'612.3
2018-Jun-09 12:00N 37°31' E 002°03'612.0
2018-Jun-09 11:30N 37°31' E 001°55'612.1
2018-Jun-09 10:58N 37°31' E 001°47'511.9
2018-Jun-09 10:30N 37°30' E 001°40'611.9
2018-Jun-09 09:59N 37°30' E 001°32'611.9
2018-Jun-09 09:30N 37°30' E 001°25'711.7
2018-Jun-09 08:53N 37°30' E 001°16'511.7
2018-Jun-09 08:30N 37°29' E 001°10'611.9
2018-Jun-09 08:00N 37°30' E 001°03'712.1
2018-Jun-09 07:27N 37°29' E 000°54'512.2
2018-Jun-09 07:00N 37°30' E 000°47'612.2
2018-Jun-09 06:30N 37°30' E 000°40'612.3
2018-Jun-09 06:00N 37°30' E 000°32'612.5
2018-Jun-09 05:30N 37°30' E 000°24'612.7
2018-Jun-09 05:00N 37°30' E 000°16'613.0
2018-Jun-09 04:30N 37°30' E 000°08'612.7
2018-Jun-09 04:00N 37°30' W 000°00'712.8
2018-Jun-09 03:29N 37°30' W 000°08'712.6
2018-Jun-09 02:57N 37°29' W 000°17'912.5
2018-Jun-09 02:14N 37°29' W 000°28'412.8
2018-Jun-09 01:55N 37°29' W 000°33'513.3
2018-Jun-09 01:30N 37°29' W 000°40'713.4
2018-Jun-09 01:00N 37°29' W 000°49'713.1
2018-Jun-09 00:31N 37°30' W 000°57'6 0.2
2018-Jun-07 22:42N 37°35' W 000°59'5 4.2
2018-Jun-07 21:36N 37°31' W 001°02'1 7.6
2018-Jun-07 21:30N 37°31' W 001°03'2 0.1
2018-Jun-06 23:05N 37°31' W 000°60'311.9
2018-Jun-06 22:50N 37°30' W 000°56'411.8
2018-Jun-06 22:30N 37°29' W 000°51'  
2018-Jun-04 13:01N 36°53' E 013°32'112.1
2018-Jun-04 12:57N 36°52' E 013°33'612.4
2018-Jun-04 12:30N 36°51' E 013°40'712.7
2018-Jun-04 11:59N 36°48' E 013°48'612.8
2018-Jun-04 11:29N 36°46' E 013°55'612.9
2018-Jun-04 11:00N 36°44' E 014°02'712.8
2018-Jun-04 10:30N 36°42' E 014°10'812.7
2018-Jun-04 09:52N 36°40' E 014°20'512.6
2018-Jun-04 09:30N 36°39' E 014°25'  
Track history (hours):
 
Tides and Currents Weather Stations Pressure Air Temp Water Temp Dewpoint Dewpoint Depression Visibility Wind Speed Wind Dir Waves Ship Positions

Fidelity

Last reported at 2018-Jun-12 01:18 UTC. Time now 2018-Jun-25 07:59 UTC.
Position N 33°16' E 014°01'.
Warning: this ship's position is 13 days out of date.

Length 116 m; draft 6.2 m.

Type: Cargo ship. MMSI: 450511000.

Date/timePositionNaut miles runAvg speedWind from/ knotsBaromVisibWave heightAir tempDewpointWater temp
2018-Jun-12 01:18N 33°16' E 014°01'310.0
2018-Jun-12 00:58N 33°19' E 013°60'5 9.9
2018-Jun-12 00:30N 33°24' E 013°58'5110.5
2018-Jun-11 19:40N 34°10' E 013°33'210.9
2018-Jun-11 19:30N 34°12' E 013°32'611.2
2018-Jun-11 18:59N 34°17' E 013°29'611.4
2018-Jun-11 18:29N 34°22' E 013°26'611.4
2018-Jun-11 18:00N 34°27' E 013°24'611.4
2018-Jun-11 17:26N 34°33' E 013°21'6011.7
2018-Jun-11 12:19N 35°28' E 012°51'411.6
2018-Jun-11 12:00N 35°31' E 012°49'611.8
2018-Jun-11 11:30N 35°36' E 012°45'611.9
2018-Jun-11 11:00N 35°41' E 012°41'612.0
2018-Jun-11 10:29N 35°46' E 012°36'611.9
2018-Jun-11 10:00N 35°51' E 012°33'612.0
2018-Jun-11 09:30N 35°56' E 012°28'612.0
2018-Jun-11 09:00N 36°01' E 012°24'612.0
2018-Jun-11 08:30N 36°06' E 012°20'611.9
2018-Jun-11 07:58N 36°11' E 012°16'611.9
2018-Jun-11 07:29N 36°16' E 012°12'611.9
2018-Jun-11 07:00N 36°21' E 012°08'611.9
2018-Jun-11 06:30N 36°26' E 012°04'712.0
2018-Jun-11 05:55N 36°32' E 011°59'38011.3
2018-Jun-09 20:26N 37°34' E 004°10'1511.6
2018-Jun-09 19:08N 37°34' E 003°51'511.5
2018-Jun-09 18:43N 37°33' E 003°44'211.4
2018-Jun-09 18:30N 37°33' E 003°41'611.4
2018-Jun-09 18:00N 37°33' E 003°34'611.4
2018-Jun-09 17:27N 37°33' E 003°26'511.7
2018-Jun-09 17:00N 37°33' E 003°20'611.9
2018-Jun-09 16:30N 37°33' E 003°12'612.1
2018-Jun-09 16:00N 37°33' E 003°05'1312.4
2018-Jun-09 14:59N 37°33' E 002°49'612.3
2018-Jun-09 14:30N 37°33' E 002°41'612.3
2018-Jun-09 14:00N 37°33' E 002°33'612.1
2018-Jun-09 13:30N 37°33' E 002°26'612.1
2018-Jun-09 13:00N 37°32' E 002°18'612.3
2018-Jun-09 12:30N 37°32' E 002°10'612.3
2018-Jun-09 12:00N 37°31' E 002°03'612.0
2018-Jun-09 11:30N 37°31' E 001°55'612.1
2018-Jun-09 10:58N 37°31' E 001°47'511.9
2018-Jun-09 10:30N 37°30' E 001°40'611.9
2018-Jun-09 09:59N 37°30' E 001°32'611.9
2018-Jun-09 09:30N 37°30' E 001°25'711.7
2018-Jun-09 08:53N 37°30' E 001°16'511.7
2018-Jun-09 08:30N 37°29' E 001°10'611.9
2018-Jun-09 08:00N 37°30' E 001°03'712.1
2018-Jun-09 07:27N 37°29' E 000°54'512.2
2018-Jun-09 07:00N 37°30' E 000°47'612.2
2018-Jun-09 06:30N 37°30' E 000°40'612.3
2018-Jun-09 06:00N 37°30' E 000°32'612.5
2018-Jun-09 05:30N 37°30' E 000°24'612.7
2018-Jun-09 05:00N 37°30' E 000°16'613.0
2018-Jun-09 04:30N 37°30' E 000°08'612.7
2018-Jun-09 04:00N 37°30' W 000°00'712.8
2018-Jun-09 03:29N 37°30' W 000°08'712.6
2018-Jun-09 02:57N 37°29' W 000°17'912.5
2018-Jun-09 02:14N 37°29' W 000°28'412.8
2018-Jun-09 01:55N 37°29' W 000°33'513.3
2018-Jun-09 01:30N 37°29' W 000°40'713.4
2018-Jun-09 01:00N 37°29' W 000°49'713.1
2018-Jun-09 00:31N 37°30' W 000°57'6 0.2
2018-Jun-07 22:42N 37°35' W 000°59'5 4.2
2018-Jun-07 21:36N 37°31' W 001°02'1 7.6
2018-Jun-07 21:30N 37°31' W 001°03'2 0.1
2018-Jun-06 23:05N 37°31' W 000°60'311.9
2018-Jun-06 22:50N 37°30' W 000°56'411.8
2018-Jun-06 22:30N 37°29' W 000°51'  
2018-Jun-04 13:01N 36°53' E 013°32'112.1
2018-Jun-04 12:57N 36°52' E 013°33'612.4
2018-Jun-04 12:30N 36°51' E 013°40'712.7
2018-Jun-04 11:59N 36°48' E 013°48'612.8
2018-Jun-04 11:29N 36°46' E 013°55'612.9
2018-Jun-04 11:00N 36°44' E 014°02'712.8
2018-Jun-04 10:30N 36°42' E 014°10'812.7
2018-Jun-04 09:52N 36°40' E 014°20'512.6
2018-Jun-04 09:30N 36°39' E 014°25'  

Dump ship's entire track history